sensor_id;sensor_type;location;lat;lon;timestamp;P1;durP1;ratioP1;P2;durP2;ratioP2
66143;SDS011;52947;50.842;6.084;2023-07-31T00:02:04;7.22;;;2.95;;
66143;SDS011;52947;50.842;6.084;2023-07-31T00:04:32;9.07;;;2.83;;
66143;SDS011;52947;50.842;6.084;2023-07-31T00:07:02;4.38;;;2.35;;
66143;SDS011;52947;50.842;6.084;2023-07-31T00:09:30;7.68;;;2.88;;
66143;SDS011;52947;50.842;6.084;2023-07-31T00:11:58;11.23;;;3.85;;
66143;SDS011;52947;50.842;6.084;2023-07-31T00:14:26;8.57;;;3.35;;
66143;SDS011;52947;50.842;6.084;2023-07-31T00:16:54;7.10;;;2.97;;
66143;SDS011;52947;50.842;6.084;2023-07-31T00:19:22;8.32;;;2.85;;
66143;SDS011;52947;50.842;6.084;2023-07-31T00:21:50;10.95;;;3.28;;
66143;SDS011;52947;50.842;6.084;2023-07-31T00:24:19;10.65;;;3.30;;
66143;SDS011;52947;50.842;6.084;2023-07-31T00:29:15;9.60;;;3.00;;
66143;SDS011;52947;50.842;6.084;2023-07-31T00:31:43;5.72;;;2.78;;
66143;SDS011;52947;50.842;6.084;2023-07-31T00:34:11;10.52;;;3.67;;
66143;SDS011;52947;50.842;6.084;2023-07-31T00:36:38;7.35;;;2.63;;
66143;SDS011;52947;50.842;6.084;2023-07-31T00:39:07;10.27;;;3.25;;
66143;SDS011;52947;50.842;6.084;2023-07-31T00:41:36;9.73;;;3.13;;
66143;SDS011;52947;50.842;6.084;2023-07-31T00:46:32;9.23;;;3.10;;
66143;SDS011;52947;50.842;6.084;2023-07-31T00:49:01;8.13;;;3.10;;
66143;SDS011;52947;50.842;6.084;2023-07-31T00:51:30;8.32;;;3.30;;
66143;SDS011;52947;50.842;6.084;2023-07-31T00:53:58;8.27;;;2.75;;
66143;SDS011;52947;50.842;6.084;2023-07-31T00:56:26;7.60;;;3.00;;
66143;SDS011;52947;50.842;6.084;2023-07-31T00:58:56;8.88;;;2.92;;
66143;SDS011;52947;50.842;6.084;2023-07-31T01:01:25;6.85;;;3.38;;
66143;SDS011;52947;50.842;6.084;2023-07-31T01:03:52;8.25;;;3.00;;
66143;SDS011;52947;50.842;6.084;2023-07-31T01:06:23;11.02;;;2.80;;
66143;SDS011;52947;50.842;6.084;2023-07-31T01:09:00;7.15;;;3.13;;
66143;SDS011;52947;50.842;6.084;2023-07-31T01:11:31;11.15;;;3.38;;
66143;SDS011;52947;50.842;6.084;2023-07-31T01:14:03;7.93;;;3.13;;
66143;SDS011;52947;50.842;6.084;2023-07-31T01:16:32;6.57;;;2.85;;
66143;SDS011;52947;50.842;6.084;2023-07-31T01:19:00;5.53;;;2.63;;
66143;SDS011;52947;50.842;6.084;2023-07-31T01:21:43;7.57;;;3.08;;
66143;SDS011;52947;50.842;6.084;2023-07-31T01:24:28;12.00;;;3.17;;
66143;SDS011;52947;50.842;6.084;2023-07-31T01:27:06;7.60;;;2.88;;
66143;SDS011;52947;50.842;6.084;2023-07-31T01:29:38;7.70;;;3.70;;
66143;SDS011;52947;50.842;6.084;2023-07-31T01:32:14;7.90;;;3.22;;
66143;SDS011;52947;50.842;6.084;2023-07-31T01:34:45;13.02;;;4.45;;
66143;SDS011;52947;50.842;6.084;2023-07-31T01:37:14;8.80;;;3.03;;
66143;SDS011;52947;50.842;6.084;2023-07-31T01:39:42;10.63;;;3.30;;
66143;SDS011;52947;50.842;6.084;2023-07-31T01:42:11;18.52;;;3.90;;
66143;SDS011;52947;50.842;6.084;2023-07-31T01:44:42;12.77;;;3.10;;
66143;SDS011;52947;50.842;6.084;2023-07-31T01:47:10;9.00;;;3.60;;
66143;SDS011;52947;50.842;6.084;2023-07-31T01:49:38;10.13;;;3.88;;
66143;SDS011;52947;50.842;6.084;2023-07-31T01:52:06;10.95;;;3.28;;
66143;SDS011;52947;50.842;6.084;2023-07-31T01:54:34;8.90;;;3.30;;
66143;SDS011;52947;50.842;6.084;2023-07-31T01:57:03;9.50;;;3.40;;
66143;SDS011;52947;50.842;6.084;2023-07-31T01:59:33;9.48;;;2.78;;
66143;SDS011;52947;50.842;6.084;2023-07-31T02:04:29;8.67;;;2.90;;
66143;SDS011;52947;50.842;6.084;2023-07-31T02:06:57;9.50;;;3.40;;
66143;SDS011;52947;50.842;6.084;2023-07-31T02:09:25;8.57;;;3.13;;
66143;SDS011;52947;50.842;6.084;2023-07-31T02:11:53;10.70;;;3.50;;
66143;SDS011;52947;50.842;6.084;2023-07-31T02:14:21;8.73;;;3.03;;
66143;SDS011;52947;50.842;6.084;2023-07-31T02:16:50;11.18;;;3.25;;
66143;SDS011;52947;50.842;6.084;2023-07-31T02:19:18;10.75;;;3.90;;
66143;SDS011;52947;50.842;6.084;2023-07-31T02:21:46;11.10;;;3.40;;
66143;SDS011;52947;50.842;6.084;2023-07-31T02:24:14;9.05;;;3.28;;
66143;SDS011;52947;50.842;6.084;2023-07-31T02:26:41;9.68;;;3.42;;
66143;SDS011;52947;50.842;6.084;2023-07-31T02:29:09;11.10;;;3.35;;
66143;SDS011;52947;50.842;6.084;2023-07-31T02:31:37;10.13;;;3.50;;
66143;SDS011;52947;50.842;6.084;2023-07-31T02:34:06;9.50;;;3.55;;
66143;SDS011;52947;50.842;6.084;2023-07-31T02:36:34;7.80;;;2.97;;
66143;SDS011;52947;50.842;6.084;2023-07-31T02:39:03;11.20;;;3.42;;
66143;SDS011;52947;50.842;6.084;2023-07-31T02:41:31;8.10;;;2.97;;
66143;SDS011;52947;50.842;6.084;2023-07-31T02:43:59;7.85;;;3.58;;
66143;SDS011;52947;50.842;6.084;2023-07-31T02:46:26;13.68;;;4.03;;
66143;SDS011;52947;50.842;6.084;2023-07-31T02:48:54;9.10;;;3.15;;
66143;SDS011;52947;50.842;6.084;2023-07-31T02:51:24;8.48;;;3.45;;
66143;SDS011;52947;50.842;6.084;2023-07-31T02:56:19;7.78;;;3.50;;
66143;SDS011;52947;50.842;6.084;2023-07-31T02:58:47;10.07;;;3.50;;
66143;SDS011;52947;50.842;6.084;2023-07-31T03:01:15;6.72;;;3.42;;
66143;SDS011;52947;50.842;6.084;2023-07-31T03:03:43;15.10;;;3.88;;
66143;SDS011;52947;50.842;6.084;2023-07-31T03:06:11;6.95;;;3.10;;
66143;SDS011;52947;50.842;6.084;2023-07-31T03:08:40;6.03;;;3.08;;
66143;SDS011;52947;50.842;6.084;2023-07-31T03:13:36;9.60;;;3.50;;
66143;SDS011;52947;50.842;6.084;2023-07-31T03:16:04;8.50;;;3.67;;
66143;SDS011;52947;50.842;6.084;2023-07-31T03:18:32;7.05;;;3.00;;
66143;SDS011;52947;50.842;6.084;2023-07-31T03:20:59;8.02;;;3.65;;
66143;SDS011;52947;50.842;6.084;2023-07-31T03:23:27;6.43;;;2.90;;
66143;SDS011;52947;50.842;6.084;2023-07-31T03:25:57;7.20;;;2.92;;
66143;SDS011;52947;50.842;6.084;2023-07-31T03:28:27;8.27;;;3.35;;
66143;SDS011;52947;50.842;6.084;2023-07-31T03:30:55;7.80;;;3.70;;
66143;SDS011;52947;50.842;6.084;2023-07-31T03:33:23;8.45;;;3.28;;
66143;SDS011;52947;50.842;6.084;2023-07-31T03:35:51;6.07;;;3.08;;
66143;SDS011;52947;50.842;6.084;2023-07-31T03:38:20;7.32;;;3.40;;
66143;SDS011;52947;50.842;6.084;2023-07-31T03:40:48;8.52;;;3.83;;
66143;SDS011;52947;50.842;6.084;2023-07-31T03:43:17;8.73;;;3.05;;
66143;SDS011;52947;50.842;6.084;2023-07-31T03:45:46;9.23;;;3.78;;
66143;SDS011;52947;50.842;6.084;2023-07-31T03:48:14;9.05;;;3.45;;
66143;SDS011;52947;50.842;6.084;2023-07-31T03:50:42;9.48;;;4.13;;
66143;SDS011;52947;50.842;6.084;2023-07-31T03:53:10;7.10;;;3.45;;
66143;SDS011;52947;50.842;6.084;2023-07-31T03:55:38;5.80;;;3.17;;
66143;SDS011;52947;50.842;6.084;2023-07-31T03:58:06;7.35;;;2.92;;
66143;SDS011;52947;50.842;6.084;2023-07-31T04:00:35;11.35;;;3.40;;
66143;SDS011;52947;50.842;6.084;2023-07-31T04:03:03;7.78;;;3.50;;
66143;SDS011;52947;50.842;6.084;2023-07-31T04:05:31;8.43;;;3.40;;
66143;SDS011;52947;50.842;6.084;2023-07-31T04:08:00;7.95;;;3.17;;
66143;SDS011;52947;50.842;6.084;2023-07-31T04:10:28;8.52;;;3.00;;
66143;SDS011;52947;50.842;6.084;2023-07-31T04:12:57;6.32;;;2.88;;
66143;SDS011;52947;50.842;6.084;2023-07-31T04:15:25;9.38;;;4.47;;
66143;SDS011;52947;50.842;6.084;2023-07-31T04:17:54;7.60;;;3.33;;
66143;SDS011;52947;50.842;6.084;2023-07-31T04:20:22;6.22;;;3.20;;
66143;SDS011;52947;50.842;6.084;2023-07-31T04:22:50;5.30;;;2.92;;
66143;SDS011;52947;50.842;6.084;2023-07-31T04:25:18;7.78;;;3.15;;
66143;SDS011;52947;50.842;6.084;2023-07-31T04:27:46;6.28;;;3.13;;
66143;SDS011;52947;50.842;6.084;2023-07-31T04:30:14;8.18;;;3.22;;
66143;SDS011;52947;50.842;6.084;2023-07-31T04:32:42;12.07;;;3.47;;
66143;SDS011;52947;50.842;6.084;2023-07-31T04:35:11;7.88;;;2.60;;
66143;SDS011;52947;50.842;6.084;2023-07-31T04:37:39;6.25;;;2.90;;
66143;SDS011;52947;50.842;6.084;2023-07-31T04:40:08;11.60;;;3.33;;
66143;SDS011;52947;50.842;6.084;2023-07-31T04:42:36;5.53;;;3.45;;
66143;SDS011;52947;50.842;6.084;2023-07-31T04:45:04;5.50;;;2.90;;
66143;SDS011;52947;50.842;6.084;2023-07-31T04:47:33;7.20;;;3.03;;
66143;SDS011;52947;50.842;6.084;2023-07-31T04:50:01;6.85;;;2.85;;
66143;SDS011;52947;50.842;6.084;2023-07-31T04:52:30;7.70;;;2.50;;
66143;SDS011;52947;50.842;6.084;2023-07-31T04:57:25;7.78;;;2.60;;
66143;SDS011;52947;50.842;6.084;2023-07-31T04:59:53;6.55;;;2.72;;
66143;SDS011;52947;50.842;6.084;2023-07-31T05:02:21;7.75;;;2.75;;
66143;SDS011;52947;50.842;6.084;2023-07-31T05:04:49;6.05;;;2.75;;
66143;SDS011;52947;50.842;6.084;2023-07-31T05:07:17;7.60;;;2.97;;
66143;SDS011;52947;50.842;6.084;2023-07-31T05:09:46;5.20;;;2.63;;
66143;SDS011;52947;50.842;6.084;2023-07-31T05:12:14;5.78;;;2.80;;
66143;SDS011;52947;50.842;6.084;2023-07-31T05:14:42;6.45;;;2.65;;
66143;SDS011;52947;50.842;6.084;2023-07-31T05:17:10;8.57;;;3.00;;
66143;SDS011;52947;50.842;6.084;2023-07-31T05:19:38;10.82;;;3.10;;
66143;SDS011;52947;50.842;6.084;2023-07-31T05:22:06;8.43;;;2.85;;
66143;SDS011;52947;50.842;6.084;2023-07-31T05:24:34;6.53;;;2.85;;
66143;SDS011;52947;50.842;6.084;2023-07-31T05:27:04;6.47;;;2.50;;
66143;SDS011;52947;50.842;6.084;2023-07-31T05:29:32;7.35;;;2.85;;
66143;SDS011;52947;50.842;6.084;2023-07-31T05:32:00;6.45;;;2.88;;
66143;SDS011;52947;50.842;6.084;2023-07-31T05:34:28;9.95;;;2.75;;
66143;SDS011;52947;50.842;6.084;2023-07-31T05:36:56;5.68;;;2.78;;
66143;SDS011;52947;50.842;6.084;2023-07-31T05:39:24;9.88;;;3.25;;
66143;SDS011;52947;50.842;6.084;2023-07-31T05:41:52;5.80;;;2.72;;
66143;SDS011;52947;50.842;6.084;2023-07-31T05:44:21;5.93;;;2.78;;
66143;SDS011;52947;50.842;6.084;2023-07-31T05:46:49;4.93;;;2.90;;
66143;SDS011;52947;50.842;6.084;2023-07-31T05:49:17;8.57;;;2.92;;
66143;SDS011;52947;50.842;6.084;2023-07-31T05:51:44;8.30;;;2.90;;
66143;SDS011;52947;50.842;6.084;2023-07-31T05:54:12;4.85;;;2.60;;
66143;SDS011;52947;50.842;6.084;2023-07-31T05:56:40;5.28;;;2.58;;
66143;SDS011;52947;50.842;6.084;2023-07-31T05:59:08;6.60;;;2.67;;
66143;SDS011;52947;50.842;6.084;2023-07-31T06:01:37;9.93;;;3.30;;
66143;SDS011;52947;50.842;6.084;2023-07-31T06:04:05;6.18;;;2.95;;
66143;SDS011;52947;50.842;6.084;2023-07-31T06:06:33;5.50;;;2.97;;
66143;SDS011;52947;50.842;6.084;2023-07-31T06:09:02;6.18;;;2.72;;
66143;SDS011;52947;50.842;6.084;2023-07-31T06:11:30;6.07;;;2.65;;
66143;SDS011;52947;50.842;6.084;2023-07-31T06:13:58;11.90;;;3.40;;
66143;SDS011;52947;50.842;6.084;2023-07-31T06:16:26;6.43;;;2.80;;
66143;SDS011;52947;50.842;6.084;2023-07-31T06:18:56;6.57;;;2.72;;
66143;SDS011;52947;50.842;6.084;2023-07-31T06:23:51;7.40;;;2.55;;
66143;SDS011;52947;50.842;6.084;2023-07-31T06:26:19;5.18;;;2.33;;
66143;SDS011;52947;50.842;6.084;2023-07-31T06:28:47;6.80;;;2.63;;
66143;SDS011;52947;50.842;6.084;2023-07-31T06:31:15;6.88;;;2.72;;
66143;SDS011;52947;50.842;6.084;2023-07-31T06:33:47;6.88;;;2.42;;
66143;SDS011;52947;50.842;6.084;2023-07-31T06:36:16;6.25;;;2.53;;
66143;SDS011;52947;50.842;6.084;2023-07-31T06:41:11;6.88;;;2.85;;
66143;SDS011;52947;50.842;6.084;2023-07-31T06:43:39;9.07;;;2.95;;
66143;SDS011;52947;50.842;6.084;2023-07-31T06:46:07;7.68;;;3.05;;
66143;SDS011;52947;50.842;6.084;2023-07-31T06:48:36;7.03;;;2.83;;
66143;SDS011;52947;50.842;6.084;2023-07-31T06:51:04;11.05;;;2.75;;
66143;SDS011;52947;50.842;6.084;2023-07-31T06:53:34;6.07;;;2.55;;
66143;SDS011;52947;50.842;6.084;2023-07-31T06:58:30;7.57;;;2.92;;
66143;SDS011;52947;50.842;6.084;2023-07-31T07:00:57;7.55;;;2.70;;
66143;SDS011;52947;50.842;6.084;2023-07-31T07:03:25;8.63;;;2.95;;
66143;SDS011;52947;50.842;6.084;2023-07-31T07:05:53;7.13;;;2.90;;
66143;SDS011;52947;50.842;6.084;2023-07-31T07:08:21;8.40;;;2.78;;
66143;SDS011;52947;50.842;6.084;2023-07-31T07:10:53;6.20;;;2.25;;
66143;SDS011;52947;50.842;6.084;2023-07-31T07:15:49;6.80;;;2.75;;
66143;SDS011;52947;50.842;6.084;2023-07-31T07:18:18;10.00;;;3.10;;
66143;SDS011;52947;50.842;6.084;2023-07-31T07:20:47;7.03;;;2.95;;
66143;SDS011;52947;50.842;6.084;2023-07-31T07:23:16;6.78;;;2.85;;
66143;SDS011;52947;50.842;6.084;2023-07-31T07:25:45;6.97;;;2.70;;
66143;SDS011;52947;50.842;6.084;2023-07-31T07:28:14;8.52;;;3.05;;
66143;SDS011;52947;50.842;6.084;2023-07-31T07:30:43;8.77;;;3.35;;
66143;SDS011;52947;50.842;6.084;2023-07-31T07:33:10;9.13;;;2.97;;
66143;SDS011;52947;50.842;6.084;2023-07-31T07:35:39;7.88;;;3.05;;
66143;SDS011;52947;50.842;6.084;2023-07-31T07:38:06;5.25;;;2.80;;
66143;SDS011;52947;50.842;6.084;2023-07-31T07:40:38;6.10;;;2.97;;
66143;SDS011;52947;50.842;6.084;2023-07-31T07:43:06;8.23;;;2.67;;
66143;SDS011;52947;50.842;6.084;2023-07-31T07:45:35;6.53;;;2.47;;
66143;SDS011;52947;50.842;6.084;2023-07-31T07:50:31;10.73;;;2.88;;
66143;SDS011;52947;50.842;6.084;2023-07-31T07:52:59;5.82;;;3.22;;
66143;SDS011;52947;50.842;6.084;2023-07-31T07:55:27;6.90;;;2.78;;
66143;SDS011;52947;50.842;6.084;2023-07-31T07:57:55;7.30;;;2.95;;
66143;SDS011;52947;50.842;6.084;2023-07-31T08:00:23;8.38;;;2.85;;
66143;SDS011;52947;50.842;6.084;2023-07-31T08:02:52;7.75;;;2.70;;
66143;SDS011;52947;50.842;6.084;2023-07-31T08:05:20;8.57;;;2.88;;
66143;SDS011;52947;50.842;6.084;2023-07-31T08:07:48;8.25;;;2.75;;
66143;SDS011;52947;50.842;6.084;2023-07-31T08:10:16;6.22;;;2.30;;
66143;SDS011;52947;50.842;6.084;2023-07-31T08:12:44;6.13;;;2.60;;
66143;SDS011;52947;50.842;6.084;2023-07-31T08:15:12;6.03;;;2.35;;
66143;SDS011;52947;50.842;6.084;2023-07-31T08:17:40;4.53;;;2.25;;
66143;SDS011;52947;50.842;6.084;2023-07-31T08:20:10;9.55;;;2.70;;
66143;SDS011;52947;50.842;6.084;2023-07-31T08:22:39;6.97;;;2.60;;
66143;SDS011;52947;50.842;6.084;2023-07-31T08:25:07;7.13;;;2.30;;
66143;SDS011;52947;50.842;6.084;2023-07-31T08:27:35;6.10;;;2.50;;
66143;SDS011;52947;50.842;6.084;2023-07-31T08:30:03;9.05;;;3.72;;
66143;SDS011;52947;50.842;6.084;2023-07-31T08:32:32;7.45;;;2.58;;
66143;SDS011;52947;50.842;6.084;2023-07-31T08:35:00;6.22;;;2.75;;
66143;SDS011;52947;50.842;6.084;2023-07-31T08:37:30;10.32;;;2.78;;
66143;SDS011;52947;50.842;6.084;2023-07-31T08:39:58;7.40;;;2.83;;
66143;SDS011;52947;50.842;6.084;2023-07-31T08:42:26;6.55;;;2.63;;
66143;SDS011;52947;50.842;6.084;2023-07-31T08:44:57;6.30;;;2.70;;
66143;SDS011;52947;50.842;6.084;2023-07-31T08:47:27;6.22;;;2.97;;
66143;SDS011;52947;50.842;6.084;2023-07-31T08:49:55;6.20;;;2.97;;
66143;SDS011;52947;50.842;6.084;2023-07-31T08:52:24;5.47;;;2.40;;
66143;SDS011;52947;50.842;6.084;2023-07-31T08:54:54;6.28;;;2.85;;
66143;SDS011;52947;50.842;6.084;2023-07-31T08:57:22;8.57;;;2.53;;
66143;SDS011;52947;50.842;6.084;2023-07-31T08:59:50;5.70;;;3.05;;
66143;SDS011;52947;50.842;6.084;2023-07-31T09:02:19;6.40;;;2.90;;
66143;SDS011;52947;50.842;6.084;2023-07-31T09:04:48;7.38;;;2.90;;
66143;SDS011;52947;50.842;6.084;2023-07-31T09:07:16;5.43;;;2.72;;
66143;SDS011;52947;50.842;6.084;2023-07-31T09:09:45;5.82;;;2.40;;
66143;SDS011;52947;50.842;6.084;2023-07-31T09:12:14;7.28;;;2.70;;
66143;SDS011;52947;50.842;6.084;2023-07-31T09:14:42;8.45;;;3.00;;
66143;SDS011;52947;50.842;6.084;2023-07-31T09:17:12;6.10;;;2.83;;
66143;SDS011;52947;50.842;6.084;2023-07-31T09:19:40;7.03;;;2.55;;
66143;SDS011;52947;50.842;6.084;2023-07-31T09:22:08;7.80;;;2.90;;
66143;SDS011;52947;50.842;6.084;2023-07-31T09:24:36;5.28;;;2.70;;
66143;SDS011;52947;50.842;6.084;2023-07-31T09:27:05;10.40;;;2.88;;
66143;SDS011;52947;50.842;6.084;2023-07-31T09:29:35;9.93;;;3.30;;
66143;SDS011;52947;50.842;6.084;2023-07-31T09:32:03;9.05;;;3.10;;
66143;SDS011;52947;50.842;6.084;2023-07-31T09:34:36;4.88;;;2.72;;
66143;SDS011;52947;50.842;6.084;2023-07-31T09:37:05;6.80;;;2.90;;
66143;SDS011;52947;50.842;6.084;2023-07-31T09:39:33;5.00;;;2.90;;
66143;SDS011;52947;50.842;6.084;2023-07-31T09:42:13;6.03;;;2.47;;
66143;SDS011;52947;50.842;6.084;2023-07-31T09:44:42;5.93;;;2.35;;
66143;SDS011;52947;50.842;6.084;2023-07-31T09:47:20;9.77;;;2.78;;
66143;SDS011;52947;50.842;6.084;2023-07-31T09:49:51;8.93;;;2.38;;
66143;SDS011;52947;50.842;6.084;2023-07-31T09:52:19;8.70;;;3.10;;
66143;SDS011;52947;50.842;6.084;2023-07-31T09:54:46;8.75;;;2.83;;
66143;SDS011;52947;50.842;6.084;2023-07-31T09:57:14;6.65;;;3.05;;
66143;SDS011;52947;50.842;6.084;2023-07-31T09:59:47;7.95;;;2.88;;
66143;SDS011;52947;50.842;6.084;2023-07-31T10:02:22;7.03;;;3.03;;
66143;SDS011;52947;50.842;6.084;2023-07-31T10:04:50;4.57;;;2.47;;
66143;SDS011;52947;50.842;6.084;2023-07-31T10:07:19;5.15;;;2.50;;
66143;SDS011;52947;50.842;6.084;2023-07-31T10:09:50;4.95;;;2.33;;
66143;SDS011;52947;50.842;6.084;2023-07-31T10:12:28;7.10;;;2.40;;
66143;SDS011;52947;50.842;6.084;2023-07-31T10:15:00;5.30;;;2.20;;
66143;SDS011;52947;50.842;6.084;2023-07-31T10:17:29;4.22;;;2.38;;
66143;SDS011;52947;50.842;6.084;2023-07-31T10:19:58;4.82;;;2.20;;
66143;SDS011;52947;50.842;6.084;2023-07-31T10:22:27;5.05;;;2.55;;
66143;SDS011;52947;50.842;6.084;2023-07-31T10:24:57;7.15;;;2.15;;
66143;SDS011;52947;50.842;6.084;2023-07-31T10:27:26;5.50;;;2.40;;
66143;SDS011;52947;50.842;6.084;2023-07-31T10:29:55;3.33;;;1.90;;
66143;SDS011;52947;50.842;6.084;2023-07-31T10:32:26;5.43;;;2.03;;
66143;SDS011;52947;50.842;6.084;2023-07-31T10:34:54;2.15;;;1.63;;
66143;SDS011;52947;50.842;6.084;2023-07-31T10:37:23;3.92;;;2.10;;
66143;SDS011;52947;50.842;6.084;2023-07-31T10:39:56;6.78;;;2.65;;
66143;SDS011;52947;50.842;6.084;2023-07-31T10:42:32;2.38;;;1.73;;
66143;SDS011;52947;50.842;6.084;2023-07-31T10:45:02;4.50;;;2.10;;
66143;SDS011;52947;50.842;6.084;2023-07-31T10:47:34;3.70;;;1.95;;
66143;SDS011;52947;50.842;6.084;2023-07-31T10:50:16;2.78;;;1.80;;
66143;SDS011;52947;50.842;6.084;2023-07-31T10:52:47;3.47;;;1.55;;
66143;SDS011;52947;50.842;6.084;2023-07-31T10:55:16;2.85;;;1.83;;
66143;SDS011;52947;50.842;6.084;2023-07-31T10:57:52;2.00;;;1.40;;
66143;SDS011;52947;50.842;6.084;2023-07-31T11:00:21;2.93;;;1.30;;
66143;SDS011;52947;50.842;6.084;2023-07-31T11:02:58;2.65;;;1.45;;
66143;SDS011;52947;50.842;6.084;2023-07-31T11:05:43;2.20;;;1.70;;
66143;SDS011;52947;50.842;6.084;2023-07-31T11:08:14;4.18;;;1.80;;
66143;SDS011;52947;50.842;6.084;2023-07-31T11:10:43;2.50;;;1.40;;
66143;SDS011;52947;50.842;6.084;2023-07-31T11:13:12;2.70;;;1.80;;
66143;SDS011;52947;50.842;6.084;2023-07-31T11:15:40;4.20;;;1.83;;
66143;SDS011;52947;50.842;6.084;2023-07-31T11:18:10;3.47;;;1.83;;
66143;SDS011;52947;50.842;6.084;2023-07-31T11:20:38;4.28;;;2.00;;
66143;SDS011;52947;50.842;6.084;2023-07-31T11:25:36;2.47;;;1.90;;
66143;SDS011;52947;50.842;6.084;2023-07-31T11:28:07;5.00;;;2.22;;
66143;SDS011;52947;50.842;6.084;2023-07-31T11:30:36;3.13;;;2.10;;
66143;SDS011;52947;50.842;6.084;2023-07-31T11:33:05;3.33;;;2.05;;
66143;SDS011;52947;50.842;6.084;2023-07-31T11:35:36;2.30;;;1.70;;
66143;SDS011;52947;50.842;6.084;2023-07-31T11:38:08;4.03;;;2.13;;
66143;SDS011;52947;50.842;6.084;2023-07-31T11:40:40;4.80;;;2.05;;
66143;SDS011;52947;50.842;6.084;2023-07-31T11:43:09;4.63;;;2.55;;
66143;SDS011;52947;50.842;6.084;2023-07-31T11:45:37;4.28;;;2.33;;
66143;SDS011;52947;50.842;6.084;2023-07-31T11:48:07;4.75;;;2.20;;
66143;SDS011;52947;50.842;6.084;2023-07-31T11:50:36;4.60;;;1.92;;
66143;SDS011;52947;50.842;6.084;2023-07-31T11:53:06;5.78;;;2.50;;
66143;SDS011;52947;50.842;6.084;2023-07-31T11:55:36;3.50;;;2.13;;
66143;SDS011;52947;50.842;6.084;2023-07-31T11:58:04;5.35;;;2.40;;
66143;SDS011;52947;50.842;6.084;2023-07-31T12:00:32;4.20;;;2.50;;
66143;SDS011;52947;50.842;6.084;2023-07-31T12:03:00;4.57;;;2.50;;
66143;SDS011;52947;50.842;6.084;2023-07-31T12:05:28;5.73;;;2.30;;
66143;SDS011;52947;50.842;6.084;2023-07-31T12:07:59;4.07;;;2.38;;
66143;SDS011;52947;50.842;6.084;2023-07-31T12:10:28;4.43;;;2.40;;
66143;SDS011;52947;50.842;6.084;2023-07-31T12:13:00;5.60;;;2.50;;
66143;SDS011;52947;50.842;6.084;2023-07-31T12:18:18;11.25;;;2.33;;
66143;SDS011;52947;50.842;6.084;2023-07-31T12:20:47;7.32;;;2.63;;
66143;SDS011;52947;50.842;6.084;2023-07-31T12:23:18;3.65;;;2.55;;
66143;SDS011;52947;50.842;6.084;2023-07-31T12:25:59;4.93;;;2.33;;
66143;SDS011;52947;50.842;6.084;2023-07-31T12:28:28;5.30;;;2.40;;
66143;SDS011;52947;50.842;6.084;2023-07-31T12:30:57;7.23;;;2.53;;
66143;SDS011;52947;50.842;6.084;2023-07-31T12:33:30;7.80;;;2.70;;
66143;SDS011;52947;50.842;6.084;2023-07-31T12:36:00;3.60;;;2.13;;
66143;SDS011;52947;50.842;6.084;2023-07-31T12:38:30;3.65;;;2.20;;
66143;SDS011;52947;50.842;6.084;2023-07-31T12:40:58;4.65;;;2.20;;
66143;SDS011;52947;50.842;6.084;2023-07-31T12:43:26;4.68;;;2.67;;
66143;SDS011;52947;50.842;6.084;2023-07-31T12:45:54;5.82;;;2.38;;
66143;SDS011;52947;50.842;6.084;2023-07-31T12:48:23;5.80;;;2.22;;
66143;SDS011;52947;50.842;6.084;2023-07-31T12:50:51;5.00;;;2.60;;
66143;SDS011;52947;50.842;6.084;2023-07-31T12:53:19;4.15;;;2.20;;
66143;SDS011;52947;50.842;6.084;2023-07-31T12:55:48;4.53;;;2.20;;
66143;SDS011;52947;50.842;6.084;2023-07-31T12:58:16;5.50;;;2.45;;
66143;SDS011;52947;50.842;6.084;2023-07-31T13:00:44;3.70;;;2.22;;
66143;SDS011;52947;50.842;6.084;2023-07-31T13:03:12;4.70;;;2.00;;
66143;SDS011;52947;50.842;6.084;2023-07-31T13:05:40;3.97;;;2.33;;
66143;SDS011;52947;50.842;6.084;2023-07-31T13:08:08;4.55;;;2.25;;
66143;SDS011;52947;50.842;6.084;2023-07-31T13:10:36;3.53;;;2.03;;
66143;SDS011;52947;50.842;6.084;2023-07-31T13:13:05;5.15;;;2.40;;
66143;SDS011;52947;50.842;6.084;2023-07-31T13:15:33;7.13;;;2.63;;
66143;SDS011;52947;50.842;6.084;2023-07-31T13:18:01;4.07;;;2.00;;
66143;SDS011;52947;50.842;6.084;2023-07-31T13:20:29;5.43;;;2.30;;
66143;SDS011;52947;50.842;6.084;2023-07-31T13:22:57;4.85;;;2.35;;
66143;SDS011;52947;50.842;6.084;2023-07-31T13:25:25;4.25;;;2.50;;
66143;SDS011;52947;50.842;6.084;2023-07-31T13:27:53;5.72;;;1.92;;
66143;SDS011;52947;50.842;6.084;2023-07-31T13:30:22;7.65;;;2.95;;
66143;SDS011;52947;50.842;6.084;2023-07-31T13:32:50;5.82;;;2.35;;
66143;SDS011;52947;50.842;6.084;2023-07-31T13:35:18;4.97;;;2.38;;
66143;SDS011;52947;50.842;6.084;2023-07-31T13:37:45;8.68;;;2.88;;
66143;SDS011;52947;50.842;6.084;2023-07-31T13:40:13;7.32;;;2.60;;
66143;SDS011;52947;50.842;6.084;2023-07-31T13:42:41;9.40;;;2.70;;
66143;SDS011;52947;50.842;6.084;2023-07-31T13:45:09;6.88;;;2.90;;
66143;SDS011;52947;50.842;6.084;2023-07-31T13:47:39;4.07;;;2.25;;
66143;SDS011;52947;50.842;6.084;2023-07-31T13:50:07;5.68;;;2.35;;
66143;SDS011;52947;50.842;6.084;2023-07-31T13:52:36;6.28;;;2.85;;
66143;SDS011;52947;50.842;6.084;2023-07-31T13:55:04;6.10;;;2.97;;
66143;SDS011;52947;50.842;6.084;2023-07-31T13:57:32;6.00;;;2.70;;
66143;SDS011;52947;50.842;6.084;2023-07-31T14:00:01;5.57;;;2.78;;
66143;SDS011;52947;50.842;6.084;2023-07-31T14:04:59;4.55;;;2.40;;
66143;SDS011;52947;50.842;6.084;2023-07-31T14:07:27;9.85;;;2.60;;
66143;SDS011;52947;50.842;6.084;2023-07-31T14:09:55;6.22;;;2.40;;
66143;SDS011;52947;50.842;6.084;2023-07-31T14:12:23;6.53;;;2.72;;
66143;SDS011;52947;50.842;6.084;2023-07-31T14:14:57;4.32;;;2.30;;
66143;SDS011;52947;50.842;6.084;2023-07-31T14:17:25;4.82;;;2.40;;
66143;SDS011;52947;50.842;6.084;2023-07-31T14:19:53;4.13;;;2.58;;
66143;SDS011;52947;50.842;6.084;2023-07-31T14:22:28;9.03;;;2.87;;
66143;SDS011;52947;50.842;6.084;2023-07-31T14:24:56;4.93;;;2.60;;
66143;SDS011;52947;50.842;6.084;2023-07-31T14:27:24;4.22;;;2.58;;
66143;SDS011;52947;50.842;6.084;2023-07-31T14:29:52;5.45;;;2.80;;
66143;SDS011;52947;50.842;6.084;2023-07-31T14:32:20;6.47;;;2.85;;
66143;SDS011;52947;50.842;6.084;2023-07-31T14:34:49;7.03;;;3.17;;
66143;SDS011;52947;50.842;6.084;2023-07-31T14:37:17;6.10;;;3.10;;
66143;SDS011;52947;50.842;6.084;2023-07-31T14:39:47;4.40;;;2.72;;
66143;SDS011;52947;50.842;6.084;2023-07-31T14:42:16;6.53;;;2.85;;
66143;SDS011;52947;50.842;6.084;2023-07-31T14:44:45;5.20;;;2.70;;
66143;SDS011;52947;50.842;6.084;2023-07-31T14:47:13;7.80;;;3.40;;
66143;SDS011;52947;50.842;6.084;2023-07-31T14:49:41;4.75;;;3.08;;
66143;SDS011;52947;50.842;6.084;2023-07-31T14:52:09;10.40;;;3.33;;
66143;SDS011;52947;50.842;6.084;2023-07-31T14:54:37;6.57;;;3.90;;
66143;SDS011;52947;50.842;6.084;2023-07-31T14:57:06;5.60;;;2.85;;
66143;SDS011;52947;50.842;6.084;2023-07-31T14:59:35;6.25;;;3.30;;
66143;SDS011;52947;50.842;6.084;2023-07-31T15:02:03;5.28;;;3.05;;
66143;SDS011;52947;50.842;6.084;2023-07-31T15:04:32;9.43;;;2.85;;
66143;SDS011;52947;50.842;6.084;2023-07-31T15:07:00;7.30;;;3.25;;
66143;SDS011;52947;50.842;6.084;2023-07-31T15:09:27;8.35;;;3.33;;
66143;SDS011;52947;50.842;6.084;2023-07-31T15:11:56;8.68;;;3.33;;
66143;SDS011;52947;50.842;6.084;2023-07-31T15:14:25;6.60;;;3.50;;
66143;SDS011;52947;50.842;6.084;2023-07-31T15:16:55;5.55;;;3.35;;
66143;SDS011;52947;50.842;6.084;2023-07-31T15:19:22;10.70;;;3.35;;
66143;SDS011;52947;50.842;6.084;2023-07-31T15:21:50;6.18;;;2.65;;
66143;SDS011;52947;50.842;6.084;2023-07-31T15:24:18;5.22;;;2.97;;
66143;SDS011;52947;50.842;6.084;2023-07-31T15:26:47;4.32;;;2.80;;
66143;SDS011;52947;50.842;6.084;2023-07-31T15:29:14;5.93;;;2.75;;
66143;SDS011;52947;50.842;6.084;2023-07-31T15:31:47;5.03;;;2.58;;